sensor_id;sensor_type;location;lat;lon;timestamp;P1;durP1;ratioP1;P2;durP2;ratioP2
8001;SDS011;4046;48.774;8.732;2024-01-16T00:02:09;1.27;;;0.90;;
8001;SDS011;4046;48.774;8.732;2024-01-16T00:04:38;1.20;;;0.70;;
8001;SDS011;4046;48.774;8.732;2024-01-16T00:07:06;1.20;;;0.70;;
8001;SDS011;4046;48.774;8.732;2024-01-16T00:09:34;1.20;;;0.90;;
8001;SDS011;4046;48.774;8.732;2024-01-16T00:12:01;1.20;;;0.90;;
8001;SDS011;4046;48.774;8.732;2024-01-16T00:14:29;1.20;;;0.80;;
8001;SDS011;4046;48.774;8.732;2024-01-16T00:16:55;1.20;;;0.90;;
8001;SDS011;4046;48.774;8.732;2024-01-16T00:19:42;1.20;;;0.90;;
8001;SDS011;4046;48.774;8.732;2024-01-16T00:22:47;1.20;;;0.80;;
8001;SDS011;4046;48.774;8.732;2024-01-16T00:25:13;1.17;;;0.80;;
8001;SDS011;4046;48.774;8.732;2024-01-16T00:27:46;1.27;;;0.80;;
8001;SDS011;4046;48.774;8.732;2024-01-16T00:34:12;1.13;;;0.80;;
8001;SDS011;4046;48.774;8.732;2024-01-16T00:36:47;1.10;;;0.80;;
8001;SDS011;4046;48.774;8.732;2024-01-16T00:39:13;1.10;;;0.80;;
8001;SDS011;4046;48.774;8.732;2024-01-16T00:41:39;1.10;;;0.70;;
8001;SDS011;4046;48.774;8.732;2024-01-16T00:44:05;1.30;;;0.90;;
8001;SDS011;4046;48.774;8.732;2024-01-16T00:49:50;1.20;;;0.80;;
8001;SDS011;4046;48.774;8.732;2024-01-16T00:52:16;1.20;;;0.70;;
8001;SDS011;4046;48.774;8.732;2024-01-16T00:54:42;1.20;;;0.80;;
8001;SDS011;4046;48.774;8.732;2024-01-16T01:02:59;1.30;;;1.00;;
8001;SDS011;4046;48.774;8.732;2024-01-16T01:05:24;1.20;;;0.70;;
8001;SDS011;4046;48.774;8.732;2024-01-16T01:07:56;1.20;;;0.80;;
8001;SDS011;4046;48.774;8.732;2024-01-16T01:10:22;1.20;;;0.90;;
8001;SDS011;4046;48.774;8.732;2024-01-16T01:12:49;1.20;;;0.80;;
8001;SDS011;4046;48.774;8.732;2024-01-16T01:15:15;1.10;;;0.80;;
8001;SDS011;4046;48.774;8.732;2024-01-16T01:17:40;1.30;;;1.00;;
8001;SDS011;4046;48.774;8.732;2024-01-16T01:20:24;1.20;;;0.90;;
8001;SDS011;4046;48.774;8.732;2024-01-16T01:23:06;1.17;;;0.77;;
8001;SDS011;4046;48.774;8.732;2024-01-16T01:25:32;1.17;;;0.70;;
8001;SDS011;4046;48.774;8.732;2024-01-16T01:28:06;1.40;;;0.77;;
8001;SDS011;4046;48.774;8.732;2024-01-16T01:30:58;1.30;;;0.80;;
8001;SDS011;4046;48.774;8.732;2024-01-16T01:33:24;1.13;;;0.80;;
8001;SDS011;4046;48.774;8.732;2024-01-16T01:35:50;1.10;;;0.70;;
8001;SDS011;4046;48.774;8.732;2024-01-16T01:38:15;1.20;;;0.80;;
8001;SDS011;4046;48.774;8.732;2024-01-16T01:43:51;1.10;;;0.70;;
8001;SDS011;4046;48.774;8.732;2024-01-16T01:50:05;1.30;;;0.90;;
8001;SDS011;4046;48.774;8.732;2024-01-16T01:52:42;1.20;;;0.80;;
8001;SDS011;4046;48.774;8.732;2024-01-16T01:55:54;1.20;;;0.70;;
8001;SDS011;4046;48.774;8.732;2024-01-16T01:58:20;1.10;;;0.70;;
8001;SDS011;4046;48.774;8.732;2024-01-16T02:00:46;1.17;;;0.70;;
8001;SDS011;4046;48.774;8.732;2024-01-16T02:03:12;1.20;;;0.70;;
8001;SDS011;4046;48.774;8.732;2024-01-16T02:05:39;1.17;;;0.70;;
8001;SDS011;4046;48.774;8.732;2024-01-16T02:08:04;1.20;;;0.70;;
8001;SDS011;4046;48.774;8.732;2024-01-16T02:10:31;1.20;;;0.73;;
8001;SDS011;4046;48.774;8.732;2024-01-16T02:12:57;1.20;;;0.80;;
8001;SDS011;4046;48.774;8.732;2024-01-16T02:15:57;1.20;;;0.80;;
8001;SDS011;4046;48.774;8.732;2024-01-16T02:18:16;1.13;;;0.73;;
8001;SDS011;4046;48.774;8.732;2024-01-16T02:20:43;1.20;;;0.87;;
8001;SDS011;4046;48.774;8.732;2024-01-16T02:23:09;1.10;;;0.70;;
8001;SDS011;4046;48.774;8.732;2024-01-16T02:26:10;1.10;;;0.77;;
8001;SDS011;4046;48.774;8.732;2024-01-16T02:28:29;1.20;;;0.73;;
8001;SDS011;4046;48.774;8.732;2024-01-16T02:30:55;1.40;;;0.70;;
8001;SDS011;4046;48.774;8.732;2024-01-16T02:33:23;1.17;;;0.70;;
8001;SDS011;4046;48.774;8.732;2024-01-16T02:35:48;1.23;;;0.80;;
8001;SDS011;4046;48.774;8.732;2024-01-16T02:38:14;1.20;;;0.80;;
8001;SDS011;4046;48.774;8.732;2024-01-16T02:40:40;1.10;;;0.70;;
8001;SDS011;4046;48.774;8.732;2024-01-16T02:43:06;1.10;;;0.70;;
8001;SDS011;4046;48.774;8.732;2024-01-16T02:45:32;2.13;;;0.80;;
8001;SDS011;4046;48.774;8.732;2024-01-16T02:51:13;1.10;;;0.70;;
8001;SDS011;4046;48.774;8.732;2024-01-16T02:53:40;1.30;;;0.90;;
8001;SDS011;4046;48.774;8.732;2024-01-16T02:56:07;1.20;;;0.80;;
8001;SDS011;4046;48.774;8.732;2024-01-16T02:58:33;1.17;;;0.70;;
8001;SDS011;4046;48.774;8.732;2024-01-16T03:04:22;1.10;;;0.80;;
8001;SDS011;4046;48.774;8.732;2024-01-16T03:08:04;1.20;;;0.80;;
8001;SDS011;4046;48.774;8.732;2024-01-16T03:10:30;1.30;;;0.80;;
8001;SDS011;4046;48.774;8.732;2024-01-16T03:16:35;1.17;;;0.77;;
8001;SDS011;4046;48.774;8.732;2024-01-16T03:19:02;1.20;;;0.80;;
8001;SDS011;4046;48.774;8.732;2024-01-16T03:21:27;1.20;;;0.83;;
8001;SDS011;4046;48.774;8.732;2024-01-16T03:27:28;1.30;;;0.87;;
8001;SDS011;4046;48.774;8.732;2024-01-16T03:29:54;1.20;;;0.90;;
8001;SDS011;4046;48.774;8.732;2024-01-16T03:32:21;1.20;;;0.70;;
8001;SDS011;4046;48.774;8.732;2024-01-16T03:38:37;1.10;;;0.70;;
8001;SDS011;4046;48.774;8.732;2024-01-16T03:41:03;1.13;;;0.70;;
8001;SDS011;4046;48.774;8.732;2024-01-16T03:43:29;1.10;;;0.70;;
8001;SDS011;4046;48.774;8.732;2024-01-16T03:45:58;1.10;;;0.70;;
8001;SDS011;4046;48.774;8.732;2024-01-16T03:51:50;1.10;;;0.70;;
8001;SDS011;4046;48.774;8.732;2024-01-16T03:54:16;1.20;;;0.77;;
8001;SDS011;4046;48.774;8.732;2024-01-16T03:56:42;1.10;;;0.70;;
8001;SDS011;4046;48.774;8.732;2024-01-16T03:59:08;1.20;;;0.83;;
8001;SDS011;4046;48.774;8.732;2024-01-16T04:01:34;1.10;;;0.70;;
8001;SDS011;4046;48.774;8.732;2024-01-16T04:04:02;1.20;;;0.90;;
8001;SDS011;4046;48.774;8.732;2024-01-16T04:10:30;1.30;;;0.70;;
8001;SDS011;4046;48.774;8.732;2024-01-16T04:23:11;1.20;;;0.70;;
8001;SDS011;4046;48.774;8.732;2024-01-16T04:25:37;1.20;;;0.80;;
8001;SDS011;4046;48.774;8.732;2024-01-16T04:28:35;1.20;;;0.70;;
8001;SDS011;4046;48.774;8.732;2024-01-16T04:30:54;1.10;;;0.70;;
8001;SDS011;4046;48.774;8.732;2024-01-16T04:33:20;1.20;;;0.80;;
8001;SDS011;4046;48.774;8.732;2024-01-16T04:38:47;1.10;;;0.70;;
8001;SDS011;4046;48.774;8.732;2024-01-16T04:41:13;1.20;;;0.70;;
8001;SDS011;4046;48.774;8.732;2024-01-16T04:44:28;1.27;;;0.80;;
8001;SDS011;4046;48.774;8.732;2024-01-16T04:50:45;1.10;;;0.63;;
8001;SDS011;4046;48.774;8.732;2024-01-16T04:53:14;1.30;;;0.80;;
8001;SDS011;4046;48.774;8.732;2024-01-16T04:59:54;1.10;;;0.60;;
8001;SDS011;4046;48.774;8.732;2024-01-16T05:06:14;1.13;;;0.70;;
8001;SDS011;4046;48.774;8.732;2024-01-16T05:08:40;1.10;;;0.70;;
8001;SDS011;4046;48.774;8.732;2024-01-16T05:11:22;1.20;;;0.80;;
8001;SDS011;4046;48.774;8.732;2024-01-16T05:13:48;1.20;;;0.80;;
8001;SDS011;4046;48.774;8.732;2024-01-16T05:16:13;1.30;;;0.90;;
8001;SDS011;4046;48.774;8.732;2024-01-16T05:21:24;1.30;;;0.70;;
8001;SDS011;4046;48.774;8.732;2024-01-16T05:23:50;1.20;;;0.70;;
8001;SDS011;4046;48.774;8.732;2024-01-16T05:29:48;1.20;;;0.80;;
8001;SDS011;4046;48.774;8.732;2024-01-16T05:32:14;1.20;;;0.90;;
8001;SDS011;4046;48.774;8.732;2024-01-16T05:43:59;1.30;;;1.10;;
8001;SDS011;4046;48.774;8.732;2024-01-16T05:46:35;1.20;;;0.80;;
8001;SDS011;4046;48.774;8.732;2024-01-16T05:49:00;1.33;;;1.10;;
8001;SDS011;4046;48.774;8.732;2024-01-16T05:51:27;1.20;;;0.83;;
8001;SDS011;4046;48.774;8.732;2024-01-16T05:53:53;1.20;;;0.80;;
8001;SDS011;4046;48.774;8.732;2024-01-16T06:00:05;1.20;;;0.97;;
8001;SDS011;4046;48.774;8.732;2024-01-16T06:02:52;1.20;;;0.80;;
8001;SDS011;4046;48.774;8.732;2024-01-16T06:05:28;1.30;;;0.83;;
8001;SDS011;4046;48.774;8.732;2024-01-16T06:07:53;1.20;;;0.83;;
8001;SDS011;4046;48.774;8.732;2024-01-16T06:10:28;1.27;;;0.90;;
8001;SDS011;4046;48.774;8.732;2024-01-16T06:16:07;1.37;;;1.10;;
8001;SDS011;4046;48.774;8.732;2024-01-16T06:18:51;1.30;;;1.00;;
8001;SDS011;4046;48.774;8.732;2024-01-16T06:24:49;1.30;;;0.90;;
8001;SDS011;4046;48.774;8.732;2024-01-16T06:27:15;1.20;;;0.90;;
8001;SDS011;4046;48.774;8.732;2024-01-16T06:29:44;1.20;;;0.83;;
8001;SDS011;4046;48.774;8.732;2024-01-16T06:32:10;1.30;;;1.13;;
8001;SDS011;4046;48.774;8.732;2024-01-16T06:34:37;1.30;;;0.90;;
8001;SDS011;4046;48.774;8.732;2024-01-16T06:37:39;1.20;;;0.70;;
8001;SDS011;4046;48.774;8.732;2024-01-16T06:41:02;1.20;;;0.90;;
8001;SDS011;4046;48.774;8.732;2024-01-16T06:43:37;1.20;;;0.90;;
8001;SDS011;4046;48.774;8.732;2024-01-16T06:46:52;1.33;;;1.00;;
8001;SDS011;4046;48.774;8.732;2024-01-16T06:49:37;1.30;;;1.00;;
8001;SDS011;4046;48.774;8.732;2024-01-16T06:56:22;1.27;;;1.10;;
8001;SDS011;4046;48.774;8.732;2024-01-16T07:02:49;1.30;;;1.07;;
8001;SDS011;4046;48.774;8.732;2024-01-16T07:05:16;1.10;;;0.80;;
8001;SDS011;4046;48.774;8.732;2024-01-16T07:07:42;1.20;;;0.90;;
8001;SDS011;4046;48.774;8.732;2024-01-16T07:10:08;1.30;;;0.90;;
8001;SDS011;4046;48.774;8.732;2024-01-16T07:12:38;1.20;;;0.80;;
8001;SDS011;4046;48.774;8.732;2024-01-16T07:15:08;1.20;;;0.90;;
8001;SDS011;4046;48.774;8.732;2024-01-16T07:24:15;1.20;;;0.90;;
8001;SDS011;4046;48.774;8.732;2024-01-16T07:26:41;1.23;;;0.90;;
8001;SDS011;4046;48.774;8.732;2024-01-16T07:32:19;1.30;;;0.90;;
8001;SDS011;4046;48.774;8.732;2024-01-16T07:34:45;1.27;;;0.93;;
8001;SDS011;4046;48.774;8.732;2024-01-16T07:37:11;1.83;;;1.00;;
8001;SDS011;4046;48.774;8.732;2024-01-16T07:39:36;1.20;;;0.80;;
8001;SDS011;4046;48.774;8.732;2024-01-16T07:42:02;1.23;;;1.00;;
8001;SDS011;4046;48.774;8.732;2024-01-16T07:44:28;1.20;;;1.00;;
8001;SDS011;4046;48.774;8.732;2024-01-16T07:50:17;1.30;;;0.97;;
8001;SDS011;4046;48.774;8.732;2024-01-16T07:56:34;1.20;;;0.87;;
8001;SDS011;4046;48.774;8.732;2024-01-16T07:59:50;1.20;;;0.90;;
8001;SDS011;4046;48.774;8.732;2024-01-16T08:02:16;1.30;;;0.87;;
8001;SDS011;4046;48.774;8.732;2024-01-16T08:04:42;1.20;;;0.90;;
8001;SDS011;4046;48.774;8.732;2024-01-16T08:10:19;1.30;;;1.00;;
8001;SDS011;4046;48.774;8.732;2024-01-16T08:12:45;1.30;;;1.10;;
8001;SDS011;4046;48.774;8.732;2024-01-16T08:15:11;1.30;;;1.00;;
8001;SDS011;4046;48.774;8.732;2024-01-16T08:17:36;1.33;;;0.97;;
8001;SDS011;4046;48.774;8.732;2024-01-16T08:20:02;1.13;;;0.80;;
8001;SDS011;4046;48.774;8.732;2024-01-16T08:22:28;1.30;;;1.10;;
8001;SDS011;4046;48.774;8.732;2024-01-16T08:28:26;1.30;;;0.83;;
8001;SDS011;4046;48.774;8.732;2024-01-16T08:31:07;1.20;;;0.90;;
8001;SDS011;4046;48.774;8.732;2024-01-16T08:33:33;1.20;;;0.80;;
8001;SDS011;4046;48.774;8.732;2024-01-16T08:35:59;1.23;;;1.00;;
8001;SDS011;4046;48.774;8.732;2024-01-16T08:38:25;1.20;;;0.90;;
8001;SDS011;4046;48.774;8.732;2024-01-16T08:40:50;1.20;;;0.80;;
8001;SDS011;4046;48.774;8.732;2024-01-16T08:43:16;1.20;;;0.90;;
8001;SDS011;4046;48.774;8.732;2024-01-16T08:45:42;1.23;;;0.97;;
8001;SDS011;4046;48.774;8.732;2024-01-16T08:48:08;1.23;;;0.97;;
8001;SDS011;4046;48.774;8.732;2024-01-16T08:50:34;1.20;;;0.93;;
8001;SDS011;4046;48.774;8.732;2024-01-16T08:53:00;1.20;;;0.90;;
8001;SDS011;4046;48.774;8.732;2024-01-16T08:55:26;1.80;;;0.90;;
8001;SDS011;4046;48.774;8.732;2024-01-16T08:57:51;1.40;;;1.20;;
8001;SDS011;4046;48.774;8.732;2024-01-16T09:03:45;1.20;;;0.90;;
8001;SDS011;4046;48.774;8.732;2024-01-16T09:06:12;1.30;;;0.90;;
8001;SDS011;4046;48.774;8.732;2024-01-16T09:08:38;1.30;;;1.07;;
8001;SDS011;4046;48.774;8.732;2024-01-16T09:14:54;1.30;;;1.03;;
8001;SDS011;4046;48.774;8.732;2024-01-16T09:17:20;1.30;;;0.90;;
8001;SDS011;4046;48.774;8.732;2024-01-16T09:19:46;1.30;;;1.10;;
8001;SDS011;4046;48.774;8.732;2024-01-16T09:22:12;1.20;;;0.90;;
8001;SDS011;4046;48.774;8.732;2024-01-16T09:24:38;1.20;;;0.90;;
8001;SDS011;4046;48.774;8.732;2024-01-16T09:27:24;1.20;;;0.83;;
8001;SDS011;4046;48.774;8.732;2024-01-16T09:31:10;1.20;;;0.80;;
8001;SDS011;4046;48.774;8.732;2024-01-16T09:33:36;1.30;;;1.00;;
8001;SDS011;4046;48.774;8.732;2024-01-16T09:36:02;1.20;;;1.00;;
8001;SDS011;4046;48.774;8.732;2024-01-16T09:38:27;1.30;;;1.00;;
8001;SDS011;4046;48.774;8.732;2024-01-16T09:40:53;1.20;;;0.90;;
8001;SDS011;4046;48.774;8.732;2024-01-16T09:43:23;1.30;;;1.00;;
8001;SDS011;4046;48.774;8.732;2024-01-16T09:49:37;1.20;;;1.00;;
8001;SDS011;4046;48.774;8.732;2024-01-16T09:52:16;1.40;;;1.10;;
8001;SDS011;4046;48.774;8.732;2024-01-16T09:54:49;1.30;;;1.10;;
8001;SDS011;4046;48.774;8.732;2024-01-16T09:57:30;1.30;;;0.97;;
8001;SDS011;4046;48.774;8.732;2024-01-16T09:59:57;1.30;;;1.00;;
8001;SDS011;4046;48.774;8.732;2024-01-16T10:02:25;1.30;;;1.07;;
8001;SDS011;4046;48.774;8.732;2024-01-16T10:04:53;1.30;;;1.10;;
8001;SDS011;4046;48.774;8.732;2024-01-16T10:07:19;1.30;;;1.00;;
8001;SDS011;4046;48.774;8.732;2024-01-16T10:09:55;1.30;;;0.97;;
8001;SDS011;4046;48.774;8.732;2024-01-16T10:12:25;1.30;;;1.10;;
8001;SDS011;4046;48.774;8.732;2024-01-16T10:14:52;1.30;;;1.03;;
8001;SDS011;4046;48.774;8.732;2024-01-16T10:20:08;1.30;;;1.00;;
8001;SDS011;4046;48.774;8.732;2024-01-16T10:22:57;1.20;;;0.90;;
8001;SDS011;4046;48.774;8.732;2024-01-16T10:26:17;1.33;;;1.20;;
8001;SDS011;4046;48.774;8.732;2024-01-16T10:32:28;1.30;;;1.00;;
8001;SDS011;4046;48.774;8.732;2024-01-16T10:35:01;1.27;;;1.00;;
8001;SDS011;4046;48.774;8.732;2024-01-16T10:37:30;1.30;;;0.90;;
8001;SDS011;4046;48.774;8.732;2024-01-16T10:40:26;1.40;;;0.90;;
8001;SDS011;4046;48.774;8.732;2024-01-16T10:46:15;1.30;;;0.90;;
8001;SDS011;4046;48.774;8.732;2024-01-16T10:48:58;1.30;;;0.90;;
8001;SDS011;4046;48.774;8.732;2024-01-16T10:52:00;1.30;;;1.00;;
8001;SDS011;4046;48.774;8.732;2024-01-16T10:54:19;1.30;;;1.00;;
8001;SDS011;4046;48.774;8.732;2024-01-16T11:00:08;1.30;;;0.87;;
8001;SDS011;4046;48.774;8.732;2024-01-16T11:02:40;1.30;;;1.10;;
8001;SDS011;4046;48.774;8.732;2024-01-16T11:05:10;1.30;;;1.07;;
8001;SDS011;4046;48.774;8.732;2024-01-16T11:07:38;1.43;;;1.33;;
8001;SDS011;4046;48.774;8.732;2024-01-16T11:10:06;1.17;;;0.80;;
8001;SDS011;4046;48.774;8.732;2024-01-16T11:12:33;1.30;;;1.03;;
8001;SDS011;4046;48.774;8.732;2024-01-16T11:18:22;1.20;;;0.80;;
8001;SDS011;4046;48.774;8.732;2024-01-16T11:20:50;1.20;;;0.97;;
8001;SDS011;4046;48.774;8.732;2024-01-16T11:23:16;1.23;;;0.97;;
8001;SDS011;4046;48.774;8.732;2024-01-16T11:30:02;1.50;;;1.03;;
8001;SDS011;4046;48.774;8.732;2024-01-16T11:33:05;1.20;;;0.80;;
8001;SDS011;4046;48.774;8.732;2024-01-16T11:39:11;1.30;;;0.90;;
8001;SDS011;4046;48.774;8.732;2024-01-16T11:41:55;1.30;;;1.00;;
8001;SDS011;4046;48.774;8.732;2024-01-16T11:48:16;1.30;;;0.87;;
8001;SDS011;4046;48.774;8.732;2024-01-16T11:50:54;1.30;;;1.00;;
8001;SDS011;4046;48.774;8.732;2024-01-16T11:54:23;1.23;;;1.00;;
8001;SDS011;4046;48.774;8.732;2024-01-16T12:01:04;1.17;;;0.73;;
8001;SDS011;4046;48.774;8.732;2024-01-16T12:04:08;1.30;;;0.90;;
8001;SDS011;4046;48.774;8.732;2024-01-16T12:10:16;1.20;;;0.80;;
8001;SDS011;4046;48.774;8.732;2024-01-16T12:12:47;1.20;;;0.90;;
8001;SDS011;4046;48.774;8.732;2024-01-16T12:15:17;1.30;;;1.10;;
8001;SDS011;4046;48.774;8.732;2024-01-16T12:21:40;1.23;;;1.00;;
8001;SDS011;4046;48.774;8.732;2024-01-16T12:24:10;1.20;;;0.90;;
8001;SDS011;4046;48.774;8.732;2024-01-16T12:26:36;1.20;;;0.90;;
8001;SDS011;4046;48.774;8.732;2024-01-16T12:29:03;1.30;;;0.90;;
8001;SDS011;4046;48.774;8.732;2024-01-16T12:31:29;1.20;;;0.90;;
8001;SDS011;4046;48.774;8.732;2024-01-16T12:34:04;1.20;;;1.00;;
8001;SDS011;4046;48.774;8.732;2024-01-16T12:36:33;1.20;;;0.80;;
8001;SDS011;4046;48.774;8.732;2024-01-16T12:39:16;1.27;;;1.00;;
8001;SDS011;4046;48.774;8.732;2024-01-16T12:42:32;1.40;;;0.93;;
8001;SDS011;4046;48.774;8.732;2024-01-16T12:44:59;1.23;;;0.90;;
8001;SDS011;4046;48.774;8.732;2024-01-16T12:47:24;1.20;;;0.80;;
8001;SDS011;4046;48.774;8.732;2024-01-16T12:49:50;1.60;;;1.20;;
8001;SDS011;4046;48.774;8.732;2024-01-16T12:53:02;1.20;;;0.80;;
8001;SDS011;4046;48.774;8.732;2024-01-16T12:55:16;1.30;;;0.90;;
8001;SDS011;4046;48.774;8.732;2024-01-16T12:57:43;1.20;;;0.87;;
8001;SDS011;4046;48.774;8.732;2024-01-16T13:00:23;1.30;;;1.10;;
8001;SDS011;4046;48.774;8.732;2024-01-16T13:02:51;1.20;;;1.00;;
8001;SDS011;4046;48.774;8.732;2024-01-16T13:05:17;1.30;;;0.90;;
8001;SDS011;4046;48.774;8.732;2024-01-16T13:07:44;1.30;;;1.00;;
8001;SDS011;4046;48.774;8.732;2024-01-16T13:10:11;1.20;;;0.80;;
8001;SDS011;4046;48.774;8.732;2024-01-16T13:12:41;1.10;;;0.90;;
8001;SDS011;4046;48.774;8.732;2024-01-16T13:15:07;1.20;;;0.80;;
8001;SDS011;4046;48.774;8.732;2024-01-16T13:17:33;1.20;;;0.80;;
8001;SDS011;4046;48.774;8.732;2024-01-16T13:20:00;1.20;;;0.70;;
8001;SDS011;4046;48.774;8.732;2024-01-16T13:22:26;1.30;;;0.87;;
8001;SDS011;4046;48.774;8.732;2024-01-16T13:24:52;1.20;;;1.00;;
8001;SDS011;4046;48.774;8.732;2024-01-16T13:27:18;1.30;;;1.00;;
8001;SDS011;4046;48.774;8.732;2024-01-16T13:32:55;1.20;;;0.80;;
8001;SDS011;4046;48.774;8.732;2024-01-16T13:35:24;1.30;;;0.93;;
8001;SDS011;4046;48.774;8.732;2024-01-16T13:38:00;1.13;;;0.80;;
8001;SDS011;4046;48.774;8.732;2024-01-16T13:40:36;1.40;;;0.93;;
8001;SDS011;4046;48.774;8.732;2024-01-16T13:47:08;1.20;;;0.93;;
8001;SDS011;4046;48.774;8.732;2024-01-16T13:52:46;1.23;;;0.80;;
8001;SDS011;4046;48.774;8.732;2024-01-16T13:55:12;1.20;;;0.80;;
8001;SDS011;4046;48.774;8.732;2024-01-16T13:57:38;1.20;;;0.80;;
8001;SDS011;4046;48.774;8.732;2024-01-16T14:00:05;1.20;;;0.80;;
8001;SDS011;4046;48.774;8.732;2024-01-16T14:06:21;1.23;;;0.90;;
8001;SDS011;4046;48.774;8.732;2024-01-16T14:08:47;1.30;;;0.90;;
8001;SDS011;4046;48.774;8.732;2024-01-16T14:11:13;1.20;;;0.80;;
8001;SDS011;4046;48.774;8.732;2024-01-16T14:16:48;1.20;;;0.80;;
8001;SDS011;4046;48.774;8.732;2024-01-16T14:22:43;1.20;;;0.90;;
8001;SDS011;4046;48.774;8.732;2024-01-16T14:25:12;1.20;;;0.70;;
8001;SDS011;4046;48.774;8.732;2024-01-16T14:27:44;1.30;;;0.90;;
8001;SDS011;4046;48.774;8.732;2024-01-16T14:30:11;1.30;;;0.97;;
8001;SDS011;4046;48.774;8.732;2024-01-16T14:32:42;1.20;;;0.90;;
8001;SDS011;4046;48.774;8.732;2024-01-16T14:35:10;1.40;;;0.90;;
8001;SDS011;4046;48.774;8.732;2024-01-16T14:37:38;1.40;;;1.00;;
8001;SDS011;4046;48.774;8.732;2024-01-16T14:40:26;1.30;;;0.90;;
8001;SDS011;4046;48.774;8.732;2024-01-16T14:42:54;1.50;;;1.00;;
8001;SDS011;4046;48.774;8.732;2024-01-16T14:45:22;1.30;;;0.90;;
8001;SDS011;4046;48.774;8.732;2024-01-16T14:47:49;1.20;;;0.80;;
8001;SDS011;4046;48.774;8.732;2024-01-16T14:57:47;1.30;;;0.90;;
8001;SDS011;4046;48.774;8.732;2024-01-16T15:00:25;1.40;;;1.00;;
8001;SDS011;4046;48.774;8.732;2024-01-16T15:02:52;1.30;;;1.00;;
8001;SDS011;4046;48.774;8.732;2024-01-16T15:05:18;1.40;;;0.90;;
8001;SDS011;4046;48.774;8.732;2024-01-16T15:07:45;1.30;;;1.10;;
8001;SDS011;4046;48.774;8.732;2024-01-16T15:10:12;1.23;;;1.00;;
8001;SDS011;4046;48.774;8.732;2024-01-16T15:12:38;1.27;;;0.93;;
8001;SDS011;4046;48.774;8.732;2024-01-16T15:15:05;1.40;;;1.00;;
8001;SDS011;4046;48.774;8.732;2024-01-16T15:17:32;1.20;;;0.90;;
8001;SDS011;4046;48.774;8.732;2024-01-16T15:19:58;1.30;;;1.00;;
8001;SDS011;4046;48.774;8.732;2024-01-16T15:22:24;1.30;;;0.90;;
8001;SDS011;4046;48.774;8.732;2024-01-16T15:24:50;1.40;;;1.20;;
8001;SDS011;4046;48.774;8.732;2024-01-16T15:27:15;1.30;;;0.90;;
8001;SDS011;4046;48.774;8.732;2024-01-16T15:29:41;1.30;;;0.93;;
8001;SDS011;4046;48.774;8.732;2024-01-16T15:32:07;1.30;;;1.00;;
8001;SDS011;4046;48.774;8.732;2024-01-16T15:34:33;1.20;;;0.90;;
8001;SDS011;4046;48.774;8.732;2024-01-16T15:37:01;1.20;;;0.90;;
8001;SDS011;4046;48.774;8.732;2024-01-16T15:43:07;1.40;;;1.10;;
8001;SDS011;4046;48.774;8.732;2024-01-16T15:45:33;1.30;;;0.90;;
8001;SDS011;4046;48.774;8.732;2024-01-16T15:47:59;1.27;;;0.97;;
8001;SDS011;4046;48.774;8.732;2024-01-16T15:50:25;1.30;;;1.00;;
8001;SDS011;4046;48.774;8.732;2024-01-16T15:52:53;1.37;;;1.13;;
8001;SDS011;4046;48.774;8.732;2024-01-16T15:55:52;1.20;;;0.90;;
8001;SDS011;4046;48.774;8.732;2024-01-16T15:58:17;1.40;;;1.10;;
8001;SDS011;4046;48.774;8.732;2024-01-16T16:00:43;1.30;;;1.03;;
8001;SDS011;4046;48.774;8.732;2024-01-16T16:03:09;1.47;;;1.10;;
8001;SDS011;4046;48.774;8.732;2024-01-16T16:05:35;1.37;;;1.03;;
8001;SDS011;4046;48.774;8.732;2024-01-16T16:08:01;1.37;;;1.10;;
8001;SDS011;4046;48.774;8.732;2024-01-16T16:11:02;1.40;;;1.10;;
8001;SDS011;4046;48.774;8.732;2024-01-16T16:13:28;1.40;;;1.07;;
8001;SDS011;4046;48.774;8.732;2024-01-16T16:15:56;1.37;;;1.13;;
8001;SDS011;4046;48.774;8.732;2024-01-16T16:18:22;1.40;;;1.10;;
8001;SDS011;4046;48.774;8.732;2024-01-16T16:20:48;1.40;;;1.30;;
8001;SDS011;4046;48.774;8.732;2024-01-16T16:23:14;1.37;;;1.10;;
8001;SDS011;4046;48.774;8.732;2024-01-16T16:25:46;1.30;;;1.10;;
8001;SDS011;4046;48.774;8.732;2024-01-16T16:28:15;1.30;;;1.03;;
8001;SDS011;4046;48.774;8.732;2024-01-16T16:30:41;1.37;;;1.07;;
8001;SDS011;4046;48.774;8.732;2024-01-16T16:33:53;1.30;;;1.00;;
8001;SDS011;4046;48.774;8.732;2024-01-16T16:36:00;1.47;;;1.20;;
8001;SDS011;4046;48.774;8.732;2024-01-16T16:42:46;1.30;;;1.10;;
8001;SDS011;4046;48.774;8.732;2024-01-16T16:45:12;1.60;;;1.27;;
8001;SDS011;4046;48.774;8.732;2024-01-16T16:47:37;1.50;;;1.20;;
8001;SDS011;4046;48.774;8.732;2024-01-16T16:50:10;1.40;;;1.20;;
8001;SDS011;4046;48.774;8.732;2024-01-16T16:52:52;1.30;;;1.00;;
8001;SDS011;4046;48.774;8.732;2024-01-16T16:55:20;1.30;;;1.10;;
8001;SDS011;4046;48.774;8.732;2024-01-16T16:57:46;1.40;;;1.10;;
8001;SDS011;4046;48.774;8.732;2024-01-16T17:00:12;1.20;;;0.90;;
8001;SDS011;4046;48.774;8.732;2024-01-16T17:02:44;1.43;;;1.33;;
8001;SDS011;4046;48.774;8.732;2024-01-16T17:05:11;1.40;;;1.27;;
8001;SDS011;4046;48.774;8.732;2024-01-16T17:07:39;1.30;;;1.10;;
8001;SDS011;4046;48.774;8.732;2024-01-16T17:10:06;1.37;;;1.23;;
8001;SDS011;4046;48.774;8.732;2024-01-16T17:12:32;1.60;;;1.40;;
8001;SDS011;4046;48.774;8.732;2024-01-16T17:15:14;1.40;;;1.13;;
8001;SDS011;4046;48.774;8.732;2024-01-16T17:17:40;1.40;;;1.27;;
8001;SDS011;4046;48.774;8.732;2024-01-16T17:20:07;1.30;;;1.10;;
8001;SDS011;4046;48.774;8.732;2024-01-16T17:22:38;1.50;;;1.20;;
8001;SDS011;4046;48.774;8.732;2024-01-16T17:25:05;2.17;;;1.40;;
8001;SDS011;4046;48.774;8.732;2024-01-16T17:27:31;1.30;;;1.20;;
8001;SDS011;4046;48.774;8.732;2024-01-16T17:29:57;1.30;;;1.07;;
8001;SDS011;4046;48.774;8.732;2024-01-16T17:32:23;1.20;;;0.90;;
8001;SDS011;4046;48.774;8.732;2024-01-16T17:34:52;1.30;;;1.10;;
8001;SDS011;4046;48.774;8.732;2024-01-16T17:40:48;1.40;;;1.07;;
8001;SDS011;4046;48.774;8.732;2024-01-16T17:43:15;1.30;;;1.20;;
8001;SDS011;4046;48.774;8.732;2024-01-16T17:49:19;1.47;;;1.37;;
8001;SDS011;4046;48.774;8.732;2024-01-16T17:52:06;1.40;;;1.30;;
8001;SDS011;4046;48.774;8.732;2024-01-16T17:58:40;1.40;;;1.20;;
8001;SDS011;4046;48.774;8.732;2024-01-16T18:01:41;1.30;;;1.20;;
8001;SDS011;4046;48.774;8.732;2024-01-16T18:04:06;1.40;;;1.20;;
8001;SDS011;4046;48.774;8.732;2024-01-16T18:06:34;1.40;;;1.10;;
8001;SDS011;4046;48.774;8.732;2024-01-16T18:09:03;1.53;;;1.43;;
8001;SDS011;4046;48.774;8.732;2024-01-16T18:12:17;1.40;;;1.30;;
8001;SDS011;4046;48.774;8.732;2024-01-16T18:14:24;1.60;;;1.50;;
8001;SDS011;4046;48.774;8.732;2024-01-16T18:16:50;1.37;;;1.20;;
8001;SDS011;4046;48.774;8.732;2024-01-16T18:19:17;1.57;;;1.47;;
8001;SDS011;4046;48.774;8.732;2024-01-16T18:21:50;1.40;;;1.30;;
8001;SDS011;4046;48.774;8.732;2024-01-16T18:24:17;1.40;;;1.30;;
8001;SDS011;4046;48.774;8.732;2024-01-16T18:26:45;1.33;;;1.20;;
8001;SDS011;4046;48.774;8.732;2024-01-16T18:29:15;1.50;;;1.40;;
8001;SDS011;4046;48.774;8.732;2024-01-16T18:34:34;2.23;;;1.90;;
8001;SDS011;4046;48.774;8.732;2024-01-16T18:37:06;1.90;;;1.80;;
8001;SDS011;4046;48.774;8.732;2024-01-16T18:39:36;1.63;;;1.50;;
8001;SDS011;4046;48.774;8.732;2024-01-16T18:42:21;2.07;;;1.87;;
8001;SDS011;4046;48.774;8.732;2024-01-16T18:45:08;3.03;;;1.70;;
8001;SDS011;4046;48.774;8.732;2024-01-16T18:47:48;1.70;;;1.60;;
8001;SDS011;4046;48.774;8.732;2024-01-16T18:50:19;1.80;;;1.70;;
8001;SDS011;4046;48.774;8.732;2024-01-16T18:53:33;1.77;;;1.67;;
8001;SDS011;4046;48.774;8.732;2024-01-16T18:56:43;2.30;;;2.10;;
8001;SDS011;4046;48.774;8.732;2024-01-16T18:59:39;1.80;;;1.70;;
8001;SDS011;4046;48.774;8.732;2024-01-16T19:06:37;1.83;;;1.73;;
8001;SDS011;4046;48.774;8.732;2024-01-16T19:16:27;1.80;;;1.70;;
8001;SDS011;4046;48.774;8.732;2024-01-16T19:39:42;1.67;;;1.53;;
8001;SDS011;4046;48.774;8.732;2024-01-16T19:42:08;1.77;;;1.67;;
8001;SDS011;4046;48.774;8.732;2024-01-16T19:44:38;1.80;;;1.70;;
8001;SDS011;4046;48.774;8.732;2024-01-16T19:54:46;2.10;;;2.00;;
8001;SDS011;4046;48.774;8.732;2024-01-16T20:00:59;1.83;;;1.73;;
8001;SDS011;4046;48.774;8.732;2024-01-16T20:03:48;1.60;;;1.50;;
8001;SDS011;4046;48.774;8.732;2024-01-16T20:06:14;1.67;;;1.57;;
8001;SDS011;4046;48.774;8.732;2024-01-16T20:12:01;2.20;;;2.10;;
8001;SDS011;4046;48.774;8.732;2024-01-16T20:14:27;1.90;;;1.80;;
8001;SDS011;4046;48.774;8.732;2024-01-16T20:24:25;2.10;;;2.00;;
8001;SDS011;4046;48.774;8.732;2024-01-16T20:33:49;2.03;;;1.93;;